Time;durP1;ratioP1;P1;durP2;ratioP2;P2;SDS_P1;SDS_P2;PMS_P1;PMS_P2;Temp;Humidity;BMP_temperature;BMP_pressure;BME280_temperature;BME280_humidity;BME280_pressure;Samples;Min_cycle;Max_cycle;Signal;HPM_P1;HPM_P2
2022/08/13 00:02:10;;;;;;;9.45;3.42;;;19.20;99.90;;;;;;4985265;28;20432;-92
2022/08/13 00:04:39;;;;;;;9.45;3.42;;;19.10;99.90;;;;;;4951366;28;20046;-92
2022/08/13 00:09:30;;;;;;;8.52;3.20;;;19.10;99.90;;;;;;4952260;28;20043;-91
2022/08/13 00:14:41;;;;;;;9.93;3.22;;;19.00;99.90;;;;;;4955111;28;20432;-93
2022/08/13 00:17:13;;;;;;;10.82;3.28;;;19.00;99.90;;;;;;4954501;28;20050;-90
2022/08/13 00:19:40;;;;;;;12.82;3.40;;;18.90;99.90;;;;;;4971490;28;20567;-91
2022/08/13 00:22:09;;;;;;;10.57;3.30;;;18.90;99.90;;;;;;4971429;28;20311;-92
2022/08/13 00:24:38;;;;;;;8.20;3.40;;;18.90;99.90;;;;;;4957293;28;20046;-91
2022/08/13 00:27:05;;;;;;;8.38;3.20;;;18.90;99.90;;;;;;4945027;29;20042;-91
2022/08/13 00:29:30;;;;;;;11.02;3.25;;;18.80;99.90;;;;;;4966444;28;20531;-91
2022/08/13 00:31:56;;;;;;;10.48;3.15;;;18.80;99.90;;;;;;4954567;28;20047;-91
2022/08/13 00:34:22;;;;;;;11.18;4.18;;;18.80;99.90;;;;;;4958793;28;20488;-91
2022/08/13 00:36:48;;;;;;;23.52;13.27;;;18.90;99.90;;;;;;4954642;28;20042;-91
2022/08/13 00:39:15;;;;;;;22.83;12.25;;;18.80;99.90;;;;;;4965086;28;20043;-92
2022/08/13 00:41:45;;;;;;;14.23;7.40;;;18.80;99.90;;;;;;4970563;28;20122;-92
2022/08/13 00:44:14;;;;;;;15.13;6.13;;;18.70;99.90;;;;;;4958113;28;20062;-91
2022/08/13 00:46:41;;;;;;;13.02;4.90;;;18.70;99.90;;;;;;4961576;28;20045;-91
2022/08/13 00:49:08;;;;;;;9.18;3.92;;;18.70;99.90;;;;;;4970221;28;20106;-91
2022/08/13 00:51:36;;;;;;;10.00;3.90;;;18.60;99.90;;;;;;4953176;28;20055;-92
2022/08/13 00:54:05;;;;;;;8.82;4.05;;;18.60;99.90;;;;;;4970476;28;20062;-90
2022/08/13 00:56:35;;;;;;;10.80;3.90;;;18.50;99.90;;;;;;4962267;28;20039;-91
2022/08/13 00:59:07;;;;;;;7.80;3.67;;;18.50;99.90;;;;;;4955415;28;20041;-91
2022/08/13 01:01:38;;;;;;;8.85;3.90;;;18.50;99.90;;;;;;4970232;28;20097;-91
2022/08/13 01:04:05;;;;;;;8.55;4.00;;;18.40;99.90;;;;;;4981164;28;20043;-90
2022/08/13 01:06:32;;;;;;;9.60;3.60;;;18.30;99.90;;;;;;4955975;28;20131;-91
2022/08/13 01:08:58;;;;;;;9.00;3.65;;;18.30;99.90;;;;;;4970787;28;20046;-90
2022/08/13 01:11:24;;;;;;;8.63;3.70;;;18.30;99.90;;;;;;4971185;28;20415;-91
2022/08/13 01:13:55;;;;;;;13.30;3.88;;;18.20;99.90;;;;;;4965660;28;20050;-91
2022/08/13 01:16:22;;;;;;;8.55;3.47;;;18.20;99.90;;;;;;4951509;28;20050;-91
2022/08/13 01:18:50;;;;;;;8.60;3.63;;;18.20;99.90;;;;;;4970979;28;20070;-91
2022/08/13 01:21:19;;;;;;;8.02;3.70;;;18.10;99.90;;;;;;4952111;28;20078;-91
2022/08/13 01:23:49;;;;;;;9.88;3.90;;;18.10;99.90;;;;;;4970171;28;20043;-90
2022/08/13 01:26:16;;;;;;;9.02;4.15;;;18.10;99.90;;;;;;4960042;28;20043;-91
2022/08/13 01:28:43;;;;;;;8.25;3.88;;;18.10;99.90;;;;;;4955897;28;20039;-91
2022/08/13 01:31:11;;;;;;;8.88;3.78;;;18.00;99.90;;;;;;4966771;28;20097;-90
2022/08/13 01:33:38;;;;;;;8.98;4.03;;;18.00;99.90;;;;;;4972979;28;20038;-91
2022/08/13 01:36:06;;;;;;;8.98;3.75;;;18.00;99.90;;;;;;4954894;28;20093;-89
2022/08/13 01:38:33;;;;;;;11.77;4.10;;;18.00;99.90;;;;;;4954803;28;20043;-91
2022/08/13 01:40:59;;;;;;;7.80;3.88;;;17.90;99.90;;;;;;4952205;28;20062;-91
2022/08/13 01:43:30;;;;;;;9.18;4.10;;;17.90;99.90;;;;;;4969539;28;20553;-92
2022/08/13 01:45:58;;;;;;;9.25;4.10;;;17.90;99.90;;;;;;4955211;28;20097;-91
2022/08/13 01:51:24;;;;;;;9.82;4.38;;;17.90;99.90;;;;;;4961034;28;20069;-91
2022/08/13 01:53:53;;;;;;;8.60;3.65;;;17.90;99.90;;;;;;4971779;28;20122;-91
2022/08/13 01:56:23;;;;;;;8.30;3.90;;;17.90;99.90;;;;;;4984982;28;20038;-92
2022/08/13 01:58:55;;;;;;;8.82;4.20;;;17.90;99.90;;;;;;4943526;29;20491;-91
2022/08/13 02:01:25;;;;;;;10.73;4.43;;;17.80;99.90;;;;;;4980438;28;20034;-91
2022/08/13 02:03:56;;;;;;;9.65;3.95;;;17.80;99.90;;;;;;4969505;28;20051;-91
2022/08/13 02:06:23;;;;;;;12.23;4.28;;;17.80;99.90;;;;;;4939128;28;20133;-91
2022/08/13 02:08:51;;;;;;;8.40;3.92;;;17.80;99.90;;;;;;4967859;28;20038;-90
2022/08/13 02:11:17;;;;;;;9.07;4.30;;;17.70;99.90;;;;;;4986684;28;20035;-91
2022/08/13 02:13:43;;;;;;;9.35;4.32;;;17.70;99.90;;;;;;4954772;28;20054;-91
2022/08/13 02:16:09;;;;;;;9.10;4.38;;;17.70;99.90;;;;;;4954797;28;20046;-91
2022/08/13 02:18:36;;;;;;;12.13;4.43;;;17.70;99.90;;;;;;4968806;28;20065;-92
2022/08/13 02:21:02;;;;;;;12.23;4.50;;;17.70;99.90;;;;;;4952008;28;20562;-92
2022/08/13 02:23:31;;;;;;;11.98;4.32;;;17.60;99.90;;;;;;4951551;29;20043;-92
2022/08/13 02:25:58;;;;;;;10.60;4.47;;;17.60;99.90;;;;;;4976354;28;20550;-91
2022/08/13 02:28:24;;;;;;;9.63;4.53;;;17.60;99.90;;;;;;4952774;28;20097;-91
2022/08/13 02:30:56;;;;;;;8.65;4.35;;;17.60;99.90;;;;;;4953565;28;20126;-91
2022/08/13 02:33:22;;;;;;;12.60;5.18;;;17.60;99.90;;;;;;4970749;28;20104;-92
2022/08/13 02:35:48;;;;;;;12.82;4.85;;;17.60;99.90;;;;;;4969772;28;20459;-91
2022/08/13 02:38:16;;;;;;;10.90;4.97;;;17.60;99.90;;;;;;4947794;28;20039;-91
2022/08/13 02:43:29;;;;;;;9.65;4.72;;;17.60;99.90;;;;;;4974087;28;20399;-92
2022/08/13 02:45:55;;;;;;;9.18;4.55;;;17.50;99.90;;;;;;4955234;28;20561;-91
2022/08/13 02:48:23;;;;;;;10.57;4.60;;;17.50;99.90;;;;;;4967217;28;20039;-91
2022/08/13 02:50:55;;;;;;;9.15;4.13;;;17.50;99.90;;;;;;4964676;28;20054;-91
2022/08/13 02:53:21;;;;;;;11.68;4.90;;;17.50;99.90;;;;;;4969670;28;20526;-92
2022/08/13 02:55:48;;;;;;;10.82;5.47;;;17.50;99.90;;;;;;4954957;28;20122;-92
2022/08/13 02:58:15;;;;;;;9.50;4.80;;;17.50;99.90;;;;;;4969585;28;20043;-92
2022/08/13 03:00:48;;;;;;;12.20;4.93;;;17.50;99.90;;;;;;4949592;28;20046;-91
2022/08/13 03:03:16;;;;;;;11.05;4.85;;;17.50;99.90;;;;;;4954724;28;20076;-91
2022/08/13 03:05:42;;;;;;;9.43;4.55;;;17.40;99.90;;;;;;4954150;28;20043;-90
2022/08/13 03:08:08;;;;;;;9.73;4.80;;;17.40;99.90;;;;;;4969569;28;20038;-91
2022/08/13 03:10:33;;;;;;;8.82;4.60;;;17.40;99.90;;;;;;4968946;28;20102;-91
2022/08/13 03:13:04;;;;;;;8.95;4.57;;;17.40;99.90;;;;;;4936090;28;20152;-91
2022/08/13 03:15:31;;;;;;;8.85;4.53;;;17.40;99.90;;;;;;4967889;28;20034;-91
2022/08/13 03:17:57;;;;;;;11.13;5.03;;;17.40;99.90;;;;;;4945341;28;20054;-91
2022/08/13 03:20:23;;;;;;;9.85;4.93;;;17.40;99.90;;;;;;4963134;28;20533;-91
2022/08/13 03:22:54;;;;;;;13.50;4.78;;;17.40;99.90;;;;;;4964633;28;20564;-91
2022/08/13 03:25:21;;;;;;;10.10;4.72;;;17.40;99.90;;;;;;4954153;28;20078;-91
2022/08/13 03:27:48;;;;;;;9.85;4.80;;;17.40;99.90;;;;;;4960817;28;20039;-91
2022/08/13 03:30:17;;;;;;;9.60;4.43;;;17.40;99.90;;;;;;4968478;28;20046;-91
2022/08/13 03:32:45;;;;;;;8.95;4.60;;;17.30;99.90;;;;;;4967966;28;20369;-91
2022/08/13 03:35:13;;;;;;;11.25;4.68;;;17.30;99.90;;;;;;4969785;28;20046;-92
2022/08/13 03:37:41;;;;;;;15.75;4.93;;;17.30;99.90;;;;;;4984367;28;20050;-91
2022/08/13 03:40:08;;;;;;;10.18;4.97;;;17.30;99.90;;;;;;4975391;28;20035;-92
2022/08/13 03:42:35;;;;;;;9.98;4.70;;;17.30;99.90;;;;;;4963174;28;20035;-92
2022/08/13 03:45:03;;;;;;;10.30;4.80;;;17.30;99.90;;;;;;4961046;28;20108;-90
2022/08/13 03:47:30;;;;;;;10.15;5.18;;;17.20;99.90;;;;;;4947935;28;20728;-91
2022/08/13 03:49:57;;;;;;;8.82;4.40;;;17.20;99.90;;;;;;4963397;28;20043;-92
2022/08/13 03:52:23;;;;;;;10.98;4.85;;;17.20;99.90;;;;;;4971170;28;20043;-91
2022/08/13 03:54:49;;;;;;;9.60;4.65;;;17.20;99.90;;;;;;4988819;28;20058;-92
2022/08/13 03:57:17;;;;;;;10.48;4.90;;;17.20;99.90;;;;;;4956405;28;20047;-92
2022/08/13 03:59:43;;;;;;;10.10;4.97;;;17.10;99.90;;;;;;4948589;28;20217;-91
2022/08/13 04:02:11;;;;;;;9.90;4.85;;;17.10;99.90;;;;;;4971912;28;20061;-91
2022/08/13 04:04:36;;;;;;;9.52;4.40;;;17.00;99.90;;;;;;4952969;28;20135;-91
2022/08/13 04:07:04;;;;;;;9.23;4.80;;;17.00;99.90;;;;;;4967344;28;20118;-91
2022/08/13 04:09:30;;;;;;;11.85;5.03;;;17.00;99.90;;;;;;4956977;28;20042;-91
2022/08/13 04:11:56;;;;;;;9.05;4.55;;;17.00;99.90;;;;;;4988656;28;20122;-91
2022/08/13 04:14:21;;;;;;;8.93;4.47;;;17.00;99.90;;;;;;4956563;28;20039;-91
2022/08/13 04:16:47;;;;;;;12.38;5.05;;;17.00;99.90;;;;;;4951763;28;20043;-91
2022/08/13 04:19:14;;;;;;;9.52;4.53;;;17.00;99.90;;;;;;4971102;28;20046;-89
2022/08/13 04:21:40;;;;;;;11.68;4.50;;;17.00;99.90;;;;;;4947107;28;20050;-91
2022/08/13 04:24:06;;;;;;;10.00;4.80;;;17.00;99.90;;;;;;4956447;28;20439;-91
2022/08/13 04:26:33;;;;;;;10.00;4.82;;;17.00;99.90;;;;;;4947861;28;20066;-91
2022/08/13 04:29:02;;;;;;;13.05;5.03;;;17.00;99.90;;;;;;4972355;28;20051;-91
2022/08/13 04:31:28;;;;;;;9.80;4.40;;;17.00;99.90;;;;;;4968602;28;20054;-91
2022/08/13 04:33:54;;;;;;;10.60;4.60;;;17.00;99.90;;;;;;4955653;28;20496;-91
2022/08/13 04:36:20;;;;;;;9.98;5.10;;;17.00;99.90;;;;;;4956728;28;20046;-91
2022/08/13 04:38:45;;;;;;;9.77;4.72;;;17.00;99.90;;;;;;4972375;28;20054;-90
2022/08/13 04:41:11;;;;;;;12.75;4.63;;;;;;;;;;4969601;28;20039;-91
2022/08/13 04:43:38;;;;;;;13.00;5.25;;;17.00;99.90;;;;;;4953277;28;20764;-92
2022/08/13 04:46:04;;;;;;;10.00;4.75;;;17.00;99.90;;;;;;4967757;28;20526;-91
2022/08/13 04:48:33;;;;;;;9.45;4.70;;;17.00;99.90;;;;;;4941544;28;20042;-91
2022/08/13 04:51:00;;;;;;;10.02;4.90;;;17.00;99.90;;;;;;4951801;28;20587;-92
2022/08/13 04:53:27;;;;;;;9.98;4.40;;;17.00;99.90;;;;;;4967513;28;20121;-92
2022/08/13 04:55:53;;;;;;;11.38;4.70;;;17.00;99.90;;;;;;4948661;28;20134;-91
2022/08/13 04:58:19;;;;;;;8.57;4.57;;;17.00;99.90;;;;;;4934072;28;20042;-91
2022/08/13 05:00:45;;;;;;;10.00;4.68;;;17.10;99.90;;;;;;4946375;28;20142;-91
2022/08/13 05:03:13;;;;;;;9.00;4.50;;;17.10;99.90;;;;;;4948398;28;20046;-91
2022/08/13 05:05:40;;;;;;;10.10;4.93;;;17.10;99.90;;;;;;4968633;28;20042;-91
2022/08/13 05:08:07;;;;;;;9.52;4.70;;;17.20;99.90;;;;;;4967631;28;20038;-92
2022/08/13 05:10:37;;;;;;;12.18;4.53;;;17.20;99.90;;;;;;4922545;28;20133;-91
2022/08/13 05:13:24;;;;;;;10.18;4.50;;;17.20;99.90;;;;;;4964736;28;20077;-91
2022/08/13 05:15:52;;;;;;;8.95;4.25;;;17.30;99.90;;;;;;4972506;28;20122;-83
2022/08/13 05:18:18;;;;;;;10.55;4.85;;;17.30;99.90;;;;;;4944081;28;20168;-85
2022/08/13 05:20:44;;;;;;;11.02;4.35;;;17.40;99.90;;;;;;4953314;28;20043;-84
2022/08/13 05:23:10;;;;;;;10.00;4.72;;;17.50;99.90;;;;;;4948541;28;20042;-84
2022/08/13 05:25:36;;;;;;;10.73;4.72;;;17.50;99.90;;;;;;4931733;28;20112;-85
2022/08/13 05:28:02;;;;;;;10.35;4.45;;;17.50;99.90;;;;;;4936363;28;20244;-84
2022/08/13 05:30:28;;;;;;;8.68;4.32;;;17.70;99.90;;;;;;4944291;28;20069;-84
2022/08/13 05:32:57;;;;;;;9.45;4.30;;;17.70;99.90;;;;;;4965944;28;20066;-84
2022/08/13 05:35:24;;;;;;;8.52;4.28;;;17.80;99.90;;;;;;4969324;28;20051;-84
2022/08/13 05:37:50;;;;;;;9.43;4.35;;;17.90;99.90;;;;;;4968434;28;20153;-84
2022/08/13 05:40:16;;;;;;;9.43;4.10;;;18.00;99.90;;;;;;4984645;28;20070;-84
2022/08/13 05:42:42;;;;;;;9.35;4.40;;;18.10;99.90;;;;;;4963214;28;20059;-84
2022/08/13 05:45:08;;;;;;;11.50;4.35;;;18.20;99.90;;;;;;4967694;28;20065;-84
2022/08/13 05:47:36;;;;;;;10.15;4.00;;;18.30;99.90;;;;;;4948927;28;20056;-85
2022/08/13 05:50:13;;;;;;;10.75;4.28;;;18.40;99.90;;;;;;4966774;28;20039;-84
2022/08/13 05:52:40;;;;;;;9.63;4.13;;;18.50;99.90;;;;;;4954190;28;20043;-84
2022/08/13 05:55:11;;;;;;;11.02;4.55;;;18.60;99.90;;;;;;4970468;28;20049;-84
2022/08/13 05:57:38;;;;;;;10.23;4.32;;;18.70;99.90;;;;;;4945815;28;20050;-84
2022/08/13 06:05:38;;;;;;;9.60;4.03;;;19.10;99.90;;;;;;4948965;28;20050;-85
2022/08/13 06:08:05;;;;;;;11.77;3.75;;;19.20;99.90;;;;;;4968286;28;20043;-85
2022/08/13 06:10:32;;;;;;;9.65;3.70;;;19.30;99.90;;;;;;4952530;28;20039;-85
2022/08/13 06:12:58;;;;;;;10.93;3.70;;;19.40;99.90;;;;;;4968828;28;20085;-85
2022/08/13 06:15:25;;;;;;;8.52;3.88;;;19.60;99.90;;;;;;4953753;28;20042;-86
2022/08/13 06:17:51;;;;;;;9.10;4.07;;;19.70;99.90;;;;;;4969585;28;20043;-85
2022/08/13 06:20:20;;;;;;;9.10;3.90;;;19.90;99.90;;;;;;4951949;28;20039;-85
2022/08/13 06:22:51;;;;;;;10.10;3.83;;;20.00;99.90;;;;;;4954585;28;20395;-85
2022/08/13 06:25:17;;;;;;;9.45;4.00;;;20.10;99.90;;;;;;4951022;28;20050;-85
2022/08/13 06:27:43;;;;;;;8.57;3.72;;;20.20;99.90;;;;;;4953914;28;20043;-85
2022/08/13 06:30:11;;;;;;;9.07;3.83;;;20.30;99.90;;;;;;4952595;28;20407;-85
2022/08/13 06:32:37;;;;;;;8.60;3.42;;;20.40;99.90;;;;;;4937125;28;20053;-84
2022/08/13 06:35:08;;;;;;;9.00;3.72;;;20.50;99.90;;;;;;4950727;28;20039;-85
2022/08/13 06:37:33;;;;;;;9.07;3.42;;;20.60;99.90;;;;;;4969728;28;20129;-85
2022/08/13 06:40:01;;;;;;;13.63;4.18;;;20.80;99.90;;;;;;4949356;29;20126;-85
2022/08/13 06:42:33;;;;;;;9.90;4.00;;;20.90;99.90;;;;;;4963146;28;20053;-85
2022/08/13 06:45:00;;;;;;;9.85;3.40;;;21.10;99.90;;;;;;4953086;28;20039;-86
2022/08/13 06:47:29;;;;;;;10.38;3.50;;;21.20;99.90;;;;;;4962906;28;20042;-84
2022/08/13 06:49:55;;;;;;;9.40;3.20;;;21.30;99.90;;;;;;4934180;28;20170;-85
2022/08/13 06:52:20;;;;;;;10.35;3.45;;;21.40;99.90;;;;;;4946601;28;20133;-85
2022/08/13 06:54:58;;;;;;;9.75;3.28;;;21.50;99.90;;;;;;4951853;28;20047;-86
2022/08/13 06:57:24;;;;;;;13.27;3.38;;;21.70;99.90;;;;;;4952320;28;20050;-84
2022/08/13 06:59:52;;;;;;;9.57;3.42;;;21.80;99.90;;;;;;4961860;28;20045;-84
2022/08/13 07:02:21;;;;;;;8.05;2.92;;;21.90;99.90;;;;;;4940605;28;20066;-84
2022/08/13 07:04:48;;;;;;;9.10;3.03;;;21.90;99.90;;;;;;4966653;28;20085;-85
2022/08/13 07:07:17;;;;;;;7.40;2.63;;;22.00;99.90;;;;;;4951893;28;20046;-85
2022/08/13 07:09:45;;;;;;;8.13;2.50;;;22.20;99.90;;;;;;4933108;28;20046;-84
2022/08/13 07:12:15;;;;;;;14.82;3.00;;;22.40;99.90;;;;;;4967329;28;20369;-84
2022/08/13 07:14:45;;;;;;;13.52;3.40;;;22.50;99.90;;;;;;4960826;28;20433;-84
2022/08/13 07:17:11;;;;;;;9.82;2.60;;;22.60;99.90;;;;;;4968569;28;20488;-84
2022/08/13 07:19:37;;;;;;;8.18;2.47;;;22.70;99.90;;;;;;4947308;28;20039;-84
2022/08/13 07:22:06;;;;;;;9.82;2.90;;;22.80;99.90;;;;;;4950920;28;20042;-84
2022/08/13 07:24:33;;;;;;;6.30;2.40;;;22.90;99.90;;;;;;4948105;28;20041;-84
2022/08/13 07:27:07;;;;;;;7.70;2.22;;;23.00;99.90;;;;;;4972797;28;20171;-84
2022/08/13 07:29:36;;;;;;;9.80;2.30;;;23.30;99.90;;;;;;4956903;28;20035;-84
2022/08/13 07:32:06;;;;;;;7.15;2.30;;;23.20;99.90;;;;;;4968995;28;20117;-84
2022/08/13 07:34:35;;;;;;;8.30;2.50;;;23.40;99.90;;;;;;4949817;28;20039;-84
2022/08/13 07:37:03;;;;;;;7.18;2.10;;;23.50;99.90;;;;;;4965609;28;20031;-84
2022/08/13 07:39:30;;;;;;;6.22;2.20;;;23.60;99.90;;;;;;4959323;28;20050;-84
2022/08/13 07:41:56;;;;;;;5.78;2.13;;;23.80;99.90;;;;;;4987262;28;20057;-84
2022/08/13 07:44:23;;;;;;;6.40;1.90;;;23.90;99.90;;;;;;4971414;28;20474;-85
2022/08/13 07:46:51;;;;;;;7.15;2.10;;;24.00;99.90;;;;;;4962294;28;20062;-85
2022/08/13 07:49:19;;;;;;;6.47;2.22;;;24.10;99.90;;;;;;4968887;28;20045;-86
2022/08/13 07:51:47;;;;;;;8.60;2.20;;;24.20;99.90;;;;;;4963348;28;20051;-84
2022/08/13 07:54:13;;;;;;;6.20;1.85;;;24.40;99.90;;;;;;4955332;28;20428;-86
2022/08/13 07:56:39;;;;;;;7.75;2.00;;;24.50;99.90;;;;;;4966585;28;20043;-84
2022/08/13 07:59:08;;;;;;;10.45;2.20;;;24.60;99.90;;;;;;4971451;28;20050;-85
2022/08/13 08:01:47;;;;;;;7.55;2.15;;;24.70;99.90;;;;;;4967933;28;20145;-86
2022/08/13 08:04:15;;;;;;;5.28;1.88;;;24.80;99.90;;;;;;4970152;28;20054;-86
2022/08/13 08:06:44;;;;;;;13.30;2.63;;;24.80;99.90;;;;;;4968449;28;20173;-86
2022/08/13 08:09:16;;;;;;;7.63;2.00;;;24.90;99.90;;;;;;4934646;28;20042;-86
2022/08/13 08:14:27;;;;;;;5.40;1.70;;;25.10;99.90;;;;;;4968285;28;20078;-85
2022/08/13 08:16:54;;;;;;;7.80;2.15;;;25.20;99.90;;;;;;4951524;28;20077;-86
2022/08/13 08:19:20;;;;;;;5.38;1.90;;;25.00;99.90;;;;;;4971814;28;20499;-87
2022/08/13 08:21:47;;;;;;;6.88;1.80;;;25.40;99.90;;;;;;4951207;28;20070;-85
2022/08/13 08:24:13;;;;;;;5.32;1.98;;;25.50;99.90;;;;;;4960101;28;20073;-85
2022/08/13 08:26:40;;;;;;;6.10;1.90;;;25.60;99.90;;;;;;4951478;28;20054;-85
2022/08/13 08:29:09;;;;;;;5.78;1.90;;;25.60;99.90;;;;;;4951535;28;20466;-83
2022/08/13 08:31:39;;;;;;;6.88;2.03;;;25.70;99.90;;;;;;4969808;28;20071;-84
2022/08/13 08:34:07;;;;;;;5.75;2.00;;;25.90;99.90;;;;;;4979674;28;20055;-85
2022/08/13 08:36:41;;;;;;;5.40;1.70;;;26.00;99.90;;;;;;4954293;28;20051;-85
2022/08/13 08:44:43;;;;;;;6.95;1.88;;;26.30;99.90;;;;;;4959147;28;20073;-86
2022/08/13 08:47:10;;;;;;;6.00;1.90;;;26.40;99.90;;;;;;4931335;28;20074;-86
2022/08/13 08:49:37;;;;;;;5.82;1.98;;;26.60;99.90;;;;;;4965984;28;20035;-85
2022/08/13 08:52:03;;;;;;;5.50;1.80;;;26.60;99.90;;;;;;4978527;28;20042;-86
2022/08/13 08:54:30;;;;;;;7.07;1.80;;;26.70;99.90;;;;;;4962530;28;20110;-86
2022/08/13 08:56:56;;;;;;;6.18;1.80;;;26.80;99.90;;;;;;4962949;28;20030;-85
2022/08/13 08:59:35;;;;;;;4.00;1.67;;;26.80;99.90;;;;;;4962914;28;20067;-85
2022/08/13 09:02:15;;;;;;;6.75;1.70;;;26.70;99.90;;;;;;4961951;28;20110;-86
2022/08/13 09:04:41;;;;;;;3.97;1.48;;;27.00;99.90;;;;;;4969416;28;20070;-85
2022/08/13 09:07:08;;;;;;;4.32;1.60;;;27.10;99.90;;;;;;4961380;28;20062;-85
2022/08/13 09:09:35;;;;;;;9.30;1.98;;;27.20;99.90;;;;;;4950182;28;20039;-86
2022/08/13 09:12:02;;;;;;;3.58;1.65;;;27.30;99.90;;;;;;4970002;28;20145;-84
2022/08/13 09:14:32;;;;;;;5.05;1.70;;;27.40;99.90;;;;;;4955331;28;20162;-85
2022/08/13 09:16:59;;;;;;;5.07;1.80;;;27.40;99.90;;;;;;4955375;28;20042;-85
2022/08/13 09:19:27;;;;;;;6.53;1.95;;;27.50;99.90;;;;;;4970615;28;20035;-85
2022/08/13 09:21:52;;;;;;;6.18;1.80;;;27.50;99.90;;;;;;4955062;28;20065;-85
2022/08/13 09:24:24;;;;;;;4.05;1.60;;;27.50;99.90;;;;;;4954161;28;20483;-85
2022/08/13 09:26:51;;;;;;;5.80;1.75;;;27.60;99.90;;;;;;4955866;28;20050;-85
2022/08/13 09:29:20;;;;;;;5.80;1.70;;;27.80;99.90;;;;;;4968088;28;20043;-85
2022/08/13 09:31:48;;;;;;;8.27;1.80;;;27.80;99.90;;;;;;4974582;28;20487;-85
2022/08/13 09:34:15;;;;;;;4.93;1.70;;;27.90;99.90;;;;;;4952757;28;20043;-85
2022/08/13 09:36:42;;;;;;;4.68;1.55;;;27.90;99.90;;;;;;4951619;29;20563;-85
2022/08/13 09:39:08;;;;;;;5.00;1.90;;;28.00;99.80;;;;;;4967857;28;20043;-85
2022/08/13 09:41:51;;;;;;;6.03;1.95;;;28.00;99.70;;;;;;4969995;28;20043;-85
2022/08/13 09:44:17;;;;;;;5.15;1.60;;;28.10;99.10;;;;;;4969994;28;20077;-85
2022/08/13 09:46:43;;;;;;;5.47;1.60;;;28.10;99.40;;;;;;4954286;28;20043;-85
2022/08/13 09:49:11;;;;;;;4.10;1.58;;;28.20;99.10;;;;;;4986305;28;20408;-84
2022/08/13 09:51:37;;;;;;;5.97;1.80;;;28.30;98.90;;;;;;4969754;28;20503;-84
2022/08/13 09:54:05;;;;;;;5.63;1.80;;;28.30;98.50;;;;;;4954555;28;20046;-84
2022/08/13 09:56:37;;;;;;;4.55;1.70;;;28.40;98.40;;;;;;4969116;28;20587;-85
2022/08/13 09:59:06;;;;;;;7.32;1.85;;;28.50;98.20;;;;;;4967301;28;20065;-89
2022/08/13 10:01:34;;;;;;;3.50;1.55;;;28.50;98.00;;;;;;4966934;28;20706;-90
2022/08/13 10:03:59;;;;;;;4.78;1.73;;;28.50;97.50;;;;;;4951339;28;20389;-90
2022/08/13 10:06:28;;;;;;;5.28;1.83;;;28.50;97.40;;;;;;4966999;28;20475;-91
2022/08/13 10:08:55;;;;;;;5.05;1.80;;;28.60;97.20;;;;;;4969602;28;20062;-90
2022/08/13 10:11:22;;;;;;;5.82;1.80;;;28.60;97.20;;;;;;4940924;28;20046;-90
2022/08/13 10:13:49;;;;;;;3.90;1.80;;;28.60;96.90;;;;;;4969821;28;20129;-91
2022/08/13 10:16:15;;;;;;;7.25;1.90;;;28.70;97.30;;;;;;4948530;28;20043;-89
2022/08/13 10:18:41;;;;;;;7.53;1.98;;;28.80;97.00;;;;;;4951073;28;20074;-89
2022/08/13 10:21:08;;;;;;;5.57;1.88;;;28.80;96.90;;;;;;4934959;28;20034;-88
2022/08/13 10:23:35;;;;;;;6.63;1.83;;;28.90;96.80;;;;;;4968652;28;20042;-89
2022/08/13 10:26:01;;;;;;;5.15;1.73;;;28.90;96.50;;;;;;4953244;28;20039;-92
2022/08/13 10:28:32;;;;;;;4.03;1.67;;;29.00;96.30;;;;;;4951136;29;20050;-91
2022/08/13 10:31:02;;;;;;;5.97;1.80;;;29.00;95.30;;;;;;4966936;28;20039;-90
2022/08/13 10:33:28;;;;;;;6.45;1.83;;;29.00;94.50;;;;;;4962160;28;20407;-89
2022/08/13 10:35:55;;;;;;;3.85;1.70;;;29.10;95.10;;;;;;4937950;28;20050;-89
2022/08/13 10:38:29;;;;;;;5.57;1.83;;;29.10;95.40;;;;;;4954049;28;20078;-90
2022/08/13 10:41:07;;;;;;;7.10;1.80;;;29.20;94.90;;;;;;4955499;28;20385;-90
2022/08/13 10:43:35;;;;;;;8.65;1.90;;;29.20;94.00;;;;;;4969240;28;20307;-92
2022/08/13 10:46:01;;;;;;;5.72;1.80;;;29.20;94.60;;;;;;4985962;28;20076;-91
2022/08/13 10:48:27;;;;;;;6.95;1.60;;;29.30;94.50;;;;;;4954331;28;20071;-91
2022/08/13 10:50:54;;;;;;;4.00;1.70;;;29.30;94.40;;;;;;4954218;28;20050;-91
2022/08/13 10:56:05;;;;;;;4.25;1.70;;;29.40;94.00;;;;;;4984514;28;20074;-91
2022/08/13 10:58:31;;;;;;;4.72;1.80;;;29.40;94.10;;;;;;4968099;28;20519;-90
2022/08/13 11:01:02;;;;;;;7.07;1.90;;;29.50;93.70;;;;;;4968889;28;20574;-92
2022/08/13 11:03:30;;;;;;;5.65;1.70;;;29.50;93.40;;;;;;4953369;28;20507;-90
2022/08/13 11:05:59;;;;;;;3.33;1.70;;;29.50;93.00;;;;;;4983935;28;20086;-90
2022/08/13 11:08:31;;;;;;;6.13;1.92;;;29.50;93.00;;;;;;4961914;28;20043;-91
2022/08/13 11:10:57;;;;;;;3.87;1.50;;;29.50;92.50;;;;;;4970085;28;20047;-89
2022/08/13 11:13:23;;;;;;;6.03;1.90;;;29.50;92.30;;;;;;4951020;28;20382;-88
2022/08/13 11:15:48;;;;;;;4.97;1.52;;;29.50;92.00;;;;;;4949516;28;20456;-92
2022/08/13 11:18:14;;;;;;;6.13;1.67;;;29.60;92.30;;;;;;4950606;28;20043;-90
2022/08/13 11:23:24;;;;;;;4.65;1.80;;;29.80;92.00;;;;;;4969477;28;20109;-92
2022/08/13 11:25:50;;;;;;;4.47;1.60;;;29.80;91.20;;;;;;4952035;28;20047;-89
2022/08/13 11:28:18;;;;;;;4.68;1.60;;;29.80;91.30;;;;;;4969234;28;20041;-92
2022/08/13 11:30:44;;;;;;;5.85;1.70;;;29.80;91.30;;;;;;4953752;28;20051;-91
2022/08/13 11:33:09;;;;;;;5.13;1.70;;;29.80;91.30;;;;;;4953267;28;20566;-89
2022/08/13 11:35:35;;;;;;;5.13;1.80;;;29.90;91.10;;;;;;4952164;28;20042;-91
2022/08/13 11:38:12;;;;;;;5.03;1.67;;;29.80;91.00;;;;;;4969353;28;20046;-91
2022/08/13 11:40:39;;;;;;;5.53;1.70;;;29.90;90.40;;;;;;4950207;29;20071;-91
2022/08/13 11:43:05;;;;;;;7.40;1.80;;;29.90;90.80;;;;;;4953514;28;20097;-91
2022/08/13 11:45:31;;;;;;;3.95;1.70;;;29.90;90.80;;;;;;4969232;28;20074;-91
2022/08/13 11:47:57;;;;;;;6.72;1.80;;;30.00;90.30;;;;;;4966865;28;20125;-91
2022/08/13 11:50:22;;;;;;;6.13;1.90;;;30.00;90.30;;;;;;4985585;28;20142;-91
2022/08/13 11:52:48;;;;;;;3.83;1.70;;;30.00;90.30;;;;;;4969334;28;20046;-91
2022/08/13 11:55:14;;;;;;;5.47;1.80;;;30.10;90.20;;;;;;4946231;28;20054;-92
2022/08/13 11:57:39;;;;;;;7.68;2.00;;;30.10;90.00;;;;;;4942354;28;20043;-91
2022/08/13 12:00:07;;;;;;;6.30;1.70;;;30.10;89.80;;;;;;4945444;28;20047;-91
2022/08/13 12:02:33;;;;;;;5.65;1.73;;;30.10;89.60;;;;;;4952564;28;20058;-90
2022/08/13 12:04:59;;;;;;;5.25;1.70;;;30.20;90.00;;;;;;4952306;28;20050;-90
2022/08/13 12:07:26;;;;;;;6.93;1.83;;;30.30;89.10;;;;;;4986946;28;20085;-91
2022/08/13 12:09:55;;;;;;;4.30;1.60;;;30.30;89.00;;;;;;4967662;28;20049;-91
2022/08/13 12:12:21;;;;;;;3.45;1.70;;;30.30;88.60;;;;;;4970675;28;20483;-92
2022/08/13 12:14:46;;;;;;;5.28;1.70;;;30.20;88.20;;;;;;4955694;28;20035;-93
2022/08/13 12:17:12;;;;;;;5.15;1.90;;;30.20;88.10;;;;;;4951848;28;20483;-91
2022/08/13 12:19:38;;;;;;;6.22;1.98;;;30.10;87.40;;;;;;4955086;28;20053;-90
2022/08/13 12:22:04;;;;;;;7.18;1.85;;;30.10;86.70;;;;;;4948080;29;20195;-91
2022/08/13 12:24:30;;;;;;;6.47;1.85;;;30.20;87.30;;;;;;4953874;28;20049;-90
2022/08/13 12:26:56;;;;;;;4.10;1.80;;;30.20;86.50;;;;;;4951844;28;20035;-90
2022/08/13 12:29:22;;;;;;;4.38;1.60;;;30.20;87.50;;;;;;4965134;28;20047;-91
2022/08/13 12:31:48;;;;;;;4.85;1.80;;;30.30;87.20;;;;;;4950790;29;20043;-92
2022/08/13 12:34:13;;;;;;;6.90;1.90;;;30.40;86.40;;;;;;4950493;28;20038;-91
2022/08/13 12:36:39;;;;;;;8.30;1.92;;;30.40;86.40;;;;;;4954909;28;20042;-91
2022/08/13 12:39:05;;;;;;;4.70;1.85;;;30.40;85.90;;;;;;4951419;28;20081;-89
2022/08/13 12:41:32;;;;;;;6.30;2.10;;;30.40;86.20;;;;;;4969377;28;20042;-92
2022/08/13 12:43:58;;;;;;;4.80;1.90;;;30.50;86.30;;;;;;4971739;28;20399;-90
2022/08/13 12:46:23;;;;;;;5.78;2.03;;;30.60;86.60;;;;;;4972066;28;20047;-91
2022/08/13 12:48:49;;;;;;;4.43;1.85;;;30.60;86.70;;;;;;4988604;28;20480;-91
2022/08/13 12:51:15;;;;;;;7.53;1.95;;;30.70;86.50;;;;;;4952319;28;20122;-91
2022/08/13 12:53:40;;;;;;;4.90;1.88;;;30.70;85.60;;;;;;4967443;28;20039;-91
2022/08/13 12:56:06;;;;;;;7.10;1.95;;;30.60;84.70;;;;;;4986456;28;20042;-91
2022/08/13 12:58:32;;;;;;;9.30;2.53;;;30.60;85.00;;;;;;4971300;28;20491;-90
2022/08/13 13:00:59;;;;;;;10.10;2.55;;;30.40;84.50;;;;;;4952473;28;20043;-91
2022/08/13 13:03:28;;;;;;;6.28;1.92;;;30.40;84.70;;;;;;4970117;28;20102;-91
2022/08/13 13:05:55;;;;;;;6.57;2.00;;;30.50;85.60;;;;;;4970016;28;20480;-87
2022/08/13 13:08:27;;;;;;;5.90;1.98;;;30.70;85.70;;;;;;4954115;28;20070;-90
2022/08/13 13:10:58;;;;;;;6.65;2.05;;;30.80;85.90;;;;;;4970165;28;20101;-90
2022/08/13 13:13:25;;;;;;;6.97;1.98;;;31.00;86.10;;;;;;4968398;28;20074;-88
2022/08/13 13:15:52;;;;;;;4.88;1.85;;;31.20;87.70;;;;;;4949887;28;20160;-91
2022/08/13 13:18:25;;;;;;;6.18;1.90;;;31.20;86.60;;;;;;4943864;28;20524;-92